Nelspruit, South Africa

9:36 AM SAST on August 30, 2016 (GMT +0200)
Rockies Drift | | Change Station

Elev 3091 ft 25.36 °S, 31.02 °E | Updated 2 seconds ago

Clear
Clear
79.2 °F
Feels Like 78 °F
N
2.9
Wind Variable Wind from WSW
Gusts 4.9 mph

Today
High -- | Low -- °F
--% Chance of Precip.
Yesterday
High -- | Low -- °F
Precip. -- in
Pressure 30.33 in
Visibility -9999.0 miles
Clouds
Heat Index 78 °F
Dew Point 26 °F
Humidity 14%
Rainfall 0.00 in
Snow Depth Not available.
6:10 AM 5:43 PM
Waning Crescent, 5% visible
SPECI FAKN 300730Z AUTO 25003KT //// // ////// 23/M00 Q1027
Pressure 30.33 in
Visibility -9999.0 miles
Clouds
Heat Index 78 °F
Dew Point 26 °F
Humidity 14%
Rainfall 0.00 in
Snow Depth Not available.
6:10 AM 5:43 PM
Waning Crescent, 5% visible
SPECI FAKN 300730Z AUTO 25003KT //// // ////// 23/M00 Q1027

10-Day Weather Forecast

No radar image for this location.
×

Almanac

Astronomy

Aug. 30, 2016 Rise Set
Actual Time
Civil Twilight
Nautical Twilight
Astronomical Twilight
Moon
Length of Visible Light
Length of Day
Tomorrow will be .
, % of the Moon is Illuminated

Today's Extremes

Country Highs Country Lows

Community

WunderPhotos

Upload Photos

1,935,795 photos uploaded!

WunderBlog® & News

Nearby

Air Quality

  Air Quality AQ Index Pollutant
Not available.

Snow Depth

Station Depth Elevation

Earthquake Activity

City Distance Mag. Time & Date
Minimum magnitude displayed is 2.5.

Coastal Water Temperatures

Place Temperature

Stations

Nearby Weather Stations

Station Location Temp. Windchill Dew Point Humidity Wind Precip. Elev Updated Type